sensor_id;sensor_type;location;lat;lon;timestamp;pressure;altitude;pressure_sealevel;temperature;humidity
2036;BME280;23642;42.658;23.350;2023-04-01T00:00:45;54638.13;;;-146.31;59.36
2036;BME280;23642;42.658;23.350;2023-04-01T00:03:12;54644.31;;;-146.31;60.07
2036;BME280;23642;42.658;23.350;2023-04-01T00:05:39;54634.00;;;-146.31;59.01
2036;BME280;23642;42.658;23.350;2023-04-01T00:08:05;54673.22;;;-146.31;59.53
2036;BME280;23642;42.658;23.350;2023-04-01T00:10:34;54700.06;;;-146.31;59.89
2036;BME280;23642;42.658;23.350;2023-04-01T00:13:02;54700.06;;;-146.31;60.25
2036;BME280;23642;42.658;23.350;2023-04-01T00:15:29;54695.94;;;-146.31;61.28
2036;BME280;23642;42.658;23.350;2023-04-01T00:17:56;54673.22;;;-146.31;61.58
2036;BME280;23642;42.658;23.350;2023-04-01T00:20:24;54689.75;;;-146.31;61.68
2036;BME280;23642;42.658;23.350;2023-04-01T00:22:51;54693.88;;;-146.31;62.35
2036;BME280;23642;42.658;23.350;2023-04-01T00:25:18;54691.81;;;-146.31;61.58
2036;BME280;23642;42.658;23.350;2023-04-01T00:27:45;54669.09;;;-146.31;61.48
2036;BME280;23642;42.658;23.350;2023-04-01T00:30:14;54675.28;;;-146.31;61.26
2036;BME280;23642;42.658;23.350;2023-04-01T00:32:41;54695.94;;;-146.31;61.08
2036;BME280;23642;42.658;23.350;2023-04-01T00:35:08;54700.06;;;-146.31;62.24
2036;BME280;23642;42.658;23.350;2023-04-01T00:37:36;54667.03;;;-146.31;61.82
2036;BME280;23642;42.658;23.350;2023-04-01T00:40:06;54689.75;;;-146.31;62.47
2036;BME280;23642;42.658;23.350;2023-04-01T00:42:33;54706.28;;;-146.31;63.50
2036;BME280;23642;42.658;23.350;2023-04-01T00:45:26;54634.00;;;-146.31;65.22
2036;BME280;23642;42.658;23.350;2023-04-01T00:47:53;54640.19;;;-146.31;66.00
2036;BME280;23642;42.658;23.350;2023-04-01T00:50:22;54644.31;;;-146.31;67.03
2036;BME280;23642;42.658;23.350;2023-04-01T00:52:51;54563.78;;;-146.31;70.41
2036;BME280;23642;42.658;23.350;2023-04-01T00:55:20;54547.28;;;-146.31;71.47
2036;BME280;23642;42.658;23.350;2023-04-01T00:57:49;54565.84;;;-146.31;70.63
2036;BME280;23642;42.658;23.350;2023-04-01T01:00:17;54574.13;;;-146.31;70.56
2036;BME280;23642;42.658;23.350;2023-04-01T01:02:46;54551.41;;;-146.31;69.93
2036;BME280;23642;42.658;23.350;2023-04-01T01:05:16;54559.66;;;-146.31;69.64
2036;BME280;23642;42.658;23.350;2023-04-01T01:07:49;54588.56;;;-146.31;70.50
2036;BME280;23642;42.658;23.350;2023-04-01T01:10:21;54578.25;;;-146.31;70.61
2036;BME280;23642;42.658;23.350;2023-04-01T01:12:56;54596.81;;;-146.31;71.03
2036;BME280;23642;42.658;23.350;2023-04-01T01:15:31;54617.47;;;-146.31;71.58
2036;BME280;23642;42.658;23.350;2023-04-01T01:18:04;54596.81;;;-146.31;72.16
2036;BME280;23642;42.658;23.350;2023-04-01T01:24:17;54617.47;;;-146.31;72.02
2036;BME280;23642;42.658;23.350;2023-04-01T01:26:57;54553.47;;;-146.31;71.58
2036;BME280;23642;42.658;23.350;2023-04-01T01:29:42;54576.19;;;-146.31;71.03
2036;BME280;23642;42.658;23.350;2023-04-01T01:32:17;54534.88;;;-146.31;70.55
2036;BME280;23642;42.658;23.350;2023-04-01T01:34:50;54551.41;;;-146.31;69.36
2036;BME280;23642;42.658;23.350;2023-04-01T01:37:23;54555.53;;;-146.31;68.90
2036;BME280;23642;42.658;23.350;2023-04-01T01:39:55;54582.38;;;-146.31;69.81
2036;BME280;23642;42.658;23.350;2023-04-01T01:42:24;54574.13;;;-146.31;70.28
2036;BME280;23642;42.658;23.350;2023-04-01T01:44:53;54555.53;;;-146.31;69.72
2036;BME280;23642;42.658;23.350;2023-04-01T01:47:22;54567.91;;;-146.31;69.80
2036;BME280;23642;42.658;23.350;2023-04-01T01:49:51;54565.84;;;-146.31;69.14
2036;BME280;23642;42.658;23.350;2023-04-01T01:52:19;54555.53;;;-146.31;68.44
2036;BME280;23642;42.658;23.350;2023-04-01T01:54:48;54553.47;;;-146.31;68.52
2036;BME280;23642;42.658;23.350;2023-04-01T01:57:17;54555.53;;;-146.31;68.20
2036;BME280;23642;42.658;23.350;2023-04-01T01:59:47;54563.78;;;-146.31;67.49
2036;BME280;23642;42.658;23.350;2023-04-01T02:02:16;54567.91;;;-146.31;65.52
2036;BME280;23642;42.658;23.350;2023-04-01T02:04:45;54594.75;;;-146.31;64.37
2036;BME280;23642;42.658;23.350;2023-04-01T02:07:16;54598.88;;;-146.31;62.50
2036;BME280;23642;42.658;23.350;2023-04-01T02:09:47;54627.81;;;-146.31;61.69
2036;BME280;23642;42.658;23.350;2023-04-01T02:12:15;54615.41;;;-146.31;60.87
2036;BME280;23642;42.658;23.350;2023-04-01T02:14:46;54617.47;;;-146.31;59.53
2036;BME280;23642;42.658;23.350;2023-04-01T02:17:17;54629.88;;;-146.31;58.85
2036;BME280;23642;42.658;23.350;2023-04-01T02:19:48;54611.28;;;-146.31;59.25
2036;BME280;23642;42.658;23.350;2023-04-01T02:22:20;54638.13;;;-146.31;60.01
2036;BME280;23642;42.658;23.350;2023-04-01T02:24:50;54623.66;;;-146.31;59.43
2036;BME280;23642;42.658;23.350;2023-04-01T02:27:19;54623.66;;;-146.31;59.89
2036;BME280;23642;42.658;23.350;2023-04-01T02:29:47;54611.28;;;-146.31;58.66
2036;BME280;23642;42.658;23.350;2023-04-01T02:32:14;54656.72;;;-146.31;59.76
2036;BME280;23642;42.658;23.350;2023-04-01T02:34:43;54625.75;;;-146.31;59.53
2036;BME280;23642;42.658;23.350;2023-04-01T02:37:10;54642.25;;;-146.31;58.41
2036;BME280;23642;42.658;23.350;2023-04-01T02:39:38;54613.34;;;-146.31;59.43
2036;BME280;23642;42.658;23.350;2023-04-01T02:42:15;54631.94;;;-146.31;59.25
2036;BME280;23642;42.658;23.350;2023-04-01T02:44:42;54609.22;;;-146.31;59.50
2036;BME280;23642;42.658;23.350;2023-04-01T02:47:09;54551.41;;;-146.31;58.89
2036;BME280;23642;42.658;23.350;2023-04-01T02:49:38;54590.63;;;-146.31;59.90
2036;BME280;23642;42.658;23.350;2023-04-01T02:52:05;54617.47;;;-146.31;58.89
2036;BME280;23642;42.658;23.350;2023-04-01T02:54:32;54603.03;;;-146.31;57.88
2036;BME280;23642;42.658;23.350;2023-04-01T02:56:59;54642.25;;;-146.31;58.19
2036;BME280;23642;42.658;23.350;2023-04-01T02:59:27;54600.97;;;-146.31;58.17
2036;BME280;23642;42.658;23.350;2023-04-01T03:01:54;54629.88;;;-146.31;58.58
2036;BME280;23642;42.658;23.350;2023-04-01T03:04:21;54650.50;;;-146.31;57.61
2036;BME280;23642;42.658;23.350;2023-04-01T03:06:48;54592.69;;;-146.31;58.13
2036;BME280;23642;42.658;23.350;2023-04-01T03:09:15;54621.59;;;-146.31;58.71
2036;BME280;23642;42.658;23.350;2023-04-01T03:11:42;54625.75;;;-146.31;59.00
2036;BME280;23642;42.658;23.350;2023-04-01T03:14:09;54631.94;;;-146.31;58.71
2036;BME280;23642;42.658;23.350;2023-04-01T03:16:37;54640.19;;;-146.31;58.22
2036;BME280;23642;42.658;23.350;2023-04-01T03:19:04;54613.34;;;-146.31;58.27
2036;BME280;23642;42.658;23.350;2023-04-01T03:21:31;54623.66;;;-146.31;58.96
2036;BME280;23642;42.658;23.350;2023-04-01T03:23:57;54617.47;;;-146.31;58.46
2036;BME280;23642;42.658;23.350;2023-04-01T03:26:25;54611.28;;;-146.31;59.07
2036;BME280;23642;42.658;23.350;2023-04-01T03:28:53;54605.09;;;-146.31;59.87
2036;BME280;23642;42.658;23.350;2023-04-01T03:31:20;54580.31;;;-146.31;60.09
2036;BME280;23642;42.658;23.350;2023-04-01T03:33:48;54592.69;;;-146.31;60.62
2036;BME280;23642;42.658;23.350;2023-04-01T03:36:15;54555.53;;;-146.31;62.50
2036;BME280;23642;42.658;23.350;2023-04-01T03:38:43;54582.38;;;-146.31;62.83
2036;BME280;23642;42.658;23.350;2023-04-01T03:41:12;54565.84;;;-146.31;64.11
2036;BME280;23642;42.658;23.350;2023-04-01T03:43:39;54574.13;;;-146.31;62.19
2036;BME280;23642;42.658;23.350;2023-04-01T03:46:06;54543.13;;;-146.31;63.78
2036;BME280;23642;42.658;23.350;2023-04-01T03:48:33;54563.78;;;-146.31;63.49
2036;BME280;23642;42.658;23.350;2023-04-01T03:51:01;54569.97;;;-146.31;62.49
2036;BME280;23642;42.658;23.350;2023-04-01T03:53:28;54530.75;;;-146.31;61.93
2036;BME280;23642;42.658;23.350;2023-04-01T03:55:55;54514.22;;;-146.31;63.72
2036;BME280;23642;42.658;23.350;2023-04-01T03:58:22;54514.22;;;-146.31;63.73
2036;BME280;23642;42.658;23.350;2023-04-01T04:00:48;54503.91;;;-146.31;64.38
2036;BME280;23642;42.658;23.350;2023-04-01T04:03:15;54555.53;;;-146.31;60.91
2036;BME280;23642;42.658;23.350;2023-04-01T04:05:46;54536.94;;;-146.31;60.71
2036;BME280;23642;42.658;23.350;2023-04-01T04:08:16;54553.47;;;-146.31;61.05
2036;BME280;23642;42.658;23.350;2023-04-01T04:10:43;54563.78;;;-146.31;61.17
2036;BME280;23642;42.658;23.350;2023-04-01T04:13:11;54545.19;;;-146.31;61.21
2036;BME280;23642;42.658;23.350;2023-04-01T04:15:38;54565.84;;;-146.31;62.39
2036;BME280;23642;42.658;23.350;2023-04-01T04:18:05;54590.63;;;-146.31;62.75
2036;BME280;23642;42.658;23.350;2023-04-01T04:20:32;54553.47;;;-146.31;62.82
2036;BME280;23642;42.658;23.350;2023-04-01T04:23:00;54543.13;;;-146.31;62.63
2036;BME280;23642;42.658;23.350;2023-04-01T04:25:28;54559.66;;;-146.31;61.80
2036;BME280;23642;42.658;23.350;2023-04-01T04:27:55;54594.75;;;-146.31;61.38
2036;BME280;23642;42.658;23.350;2023-04-01T04:30:24;54565.84;;;-146.31;61.34
2036;BME280;23642;42.658;23.350;2023-04-01T04:32:52;54565.84;;;-146.31;61.46
2036;BME280;23642;42.658;23.350;2023-04-01T04:35:19;54588.56;;;-146.31;62.18
2036;BME280;23642;42.658;23.350;2023-04-01T04:37:46;54592.69;;;-146.31;62.63
2036;BME280;23642;42.658;23.350;2023-04-01T04:40:13;54596.81;;;-146.31;62.60
2036;BME280;23642;42.658;23.350;2023-04-01T04:42:42;54613.34;;;-146.31;61.93
2036;BME280;23642;42.658;23.350;2023-04-01T04:45:10;54617.47;;;-146.31;61.58
2036;BME280;23642;42.658;23.350;2023-04-01T04:47:37;54613.34;;;-146.31;62.08
2036;BME280;23642;42.658;23.350;2023-04-01T04:50:05;54611.28;;;-146.31;61.36
2036;BME280;23642;42.658;23.350;2023-04-01T04:52:32;54609.22;;;-146.31;60.59
2036;BME280;23642;42.658;23.350;2023-04-01T04:54:59;54621.59;;;-146.31;59.24
2036;BME280;23642;42.658;23.350;2023-04-01T04:57:26;54613.34;;;-146.31;57.70
2036;BME280;23642;42.658;23.350;2023-04-01T04:59:54;54660.84;;;-146.31;58.33
2036;BME280;23642;42.658;23.350;2023-04-01T05:02:21;54652.59;;;-146.31;58.48
2036;BME280;23642;42.658;23.350;2023-04-01T05:04:48;54642.25;;;-146.31;58.82
2036;BME280;23642;42.658;23.350;2023-04-01T05:07:15;54634.00;;;-146.31;59.37
2036;BME280;23642;42.658;23.350;2023-04-01T05:09:42;54634.00;;;-146.31;60.21
2036;BME280;23642;42.658;23.350;2023-04-01T05:12:11;54642.25;;;-146.31;60.31
2036;BME280;23642;42.658;23.350;2023-04-01T05:14:38;54646.38;;;-146.31;61.30
2036;BME280;23642;42.658;23.350;2023-04-01T05:17:09;54654.66;;;-146.31;61.91
2036;BME280;23642;42.658;23.350;2023-04-01T05:19:36;54677.34;;;-146.31;62.95
2036;BME280;23642;42.658;23.350;2023-04-01T05:22:04;54658.78;;;-146.31;62.39
2036;BME280;23642;42.658;23.350;2023-04-01T05:24:31;54652.59;;;-146.31;63.10
2036;BME280;23642;42.658;23.350;2023-04-01T05:26:58;54646.38;;;-146.31;63.51
2036;BME280;23642;42.658;23.350;2023-04-01T05:29:25;54646.38;;;-146.31;61.86
2036;BME280;23642;42.658;23.350;2023-04-01T05:31:53;54654.66;;;-146.31;62.23
2036;BME280;23642;42.658;23.350;2023-04-01T05:34:21;54652.59;;;-146.31;61.58
2036;BME280;23642;42.658;23.350;2023-04-01T05:36:48;54640.19;;;-146.31;61.60
2036;BME280;23642;42.658;23.350;2023-04-01T05:39:15;54652.59;;;-146.31;59.90
2036;BME280;23642;42.658;23.350;2023-04-01T05:41:42;54642.25;;;-146.31;60.71
2036;BME280;23642;42.658;23.350;2023-04-01T05:44:11;54671.16;;;-146.31;60.86
2036;BME280;23642;42.658;23.350;2023-04-01T05:46:39;54629.88;;;-146.31;58.56
2036;BME280;23642;42.658;23.350;2023-04-01T05:49:05;54634.00;;;-146.31;58.62
2036;BME280;23642;42.658;23.350;2023-04-01T05:51:34;54617.47;;;-146.31;57.81
2036;BME280;23642;42.658;23.350;2023-04-01T05:54:00;54611.28;;;-146.31;56.38
2036;BME280;23642;42.658;23.350;2023-04-01T05:56:27;54592.69;;;-146.31;55.57
2036;BME280;23642;42.658;23.350;2023-04-01T05:58:54;54592.69;;;-146.31;54.30
2036;BME280;23642;42.658;23.350;2023-04-01T06:01:21;54549.34;;;-146.31;53.54
2036;BME280;23642;42.658;23.350;2023-04-01T06:03:48;54522.50;;;-146.31;52.71
2036;BME280;23642;42.658;23.350;2023-04-01T06:06:16;54518.38;;;-146.31;51.36
2036;BME280;23642;42.658;23.350;2023-04-01T06:08:48;54485.31;;;-146.31;49.78
2036;BME280;23642;42.658;23.350;2023-04-01T06:11:23;54549.34;;;-146.31;50.69
2036;BME280;23642;42.658;23.350;2023-04-01T06:14:10;54541.06;;;-146.31;49.91
2036;BME280;23642;42.658;23.350;2023-04-01T06:16:49;54493.59;;;-146.31;48.74
2036;BME280;23642;42.658;23.350;2023-04-01T06:19:28;54485.31;;;-146.31;47.79
2036;BME280;23642;42.658;23.350;2023-04-01T06:28:04;54522.50;;;-146.31;47.18
2036;BME280;23642;42.658;23.350;2023-04-01T06:30:40;54516.28;;;-146.31;46.73
2036;BME280;23642;42.658;23.350;2023-04-01T06:33:24;54520.44;;;-146.31;46.47
2036;BME280;23642;42.658;23.350;2023-04-01T06:36:23;54532.81;;;-146.31;46.96
2036;BME280;23642;42.658;23.350;2023-04-01T06:39:15;54477.06;;;-146.31;46.10
2036;BME280;23642;42.658;23.350;2023-04-01T06:42:02;54483.25;;;-146.31;45.80
2036;BME280;23642;42.658;23.350;2023-04-01T06:44:46;54505.97;;;-146.31;46.34
2036;BME280;23642;42.658;23.350;2023-04-01T06:47:28;54555.53;;;-146.31;47.80
2036;BME280;23642;42.658;23.350;2023-04-01T06:50:06;54547.28;;;-146.31;49.21
2036;BME280;23642;42.658;23.350;2023-04-01T06:52:41;54578.25;;;-146.31;50.70
2036;BME280;23642;42.658;23.350;2023-04-01T06:55:27;54545.19;;;-146.31;51.36
2036;BME280;23642;42.658;23.350;2023-04-01T06:57:56;54543.13;;;-146.31;52.02
2036;BME280;23642;42.658;23.350;2023-04-01T07:00:29;54493.59;;;-146.31;51.43
2036;BME280;23642;42.658;23.350;2023-04-01T07:03:05;54493.59;;;-146.31;52.06
2036;BME280;23642;42.658;23.350;2023-04-01T07:05:33;54522.50;;;-146.31;52.65
2036;BME280;23642;42.658;23.350;2023-04-01T07:08:03;54532.81;;;-146.31;53.58
2036;BME280;23642;42.658;23.350;2023-04-01T07:10:35;54505.97;;;-146.31;53.94
2036;BME280;23642;42.658;23.350;2023-04-01T07:13:06;54472.94;;;-146.31;53.03
2036;BME280;23642;42.658;23.350;2023-04-01T07:15:40;54435.75;;;-146.31;52.47
2036;BME280;23642;42.658;23.350;2023-04-01T07:18:12;54417.19;;;-146.31;51.50
2036;BME280;23642;42.658;23.350;2023-04-01T07:20:42;54402.72;;;-146.31;50.58
2036;BME280;23642;42.658;23.350;2023-04-01T07:23:16;54361.44;;;-146.31;50.45
2036;BME280;23642;42.658;23.350;2023-04-01T07:25:51;54400.66;;;-146.31;50.17
2036;BME280;23642;42.658;23.350;2023-04-01T07:28:20;54402.72;;;-146.31;50.38
2036;BME280;23642;42.658;23.350;2023-04-01T07:30:53;54394.47;;;-146.31;50.60
2036;BME280;23642;42.658;23.350;2023-04-01T07:33:31;54437.84;;;-146.31;50.99
2036;BME280;23642;42.658;23.350;2023-04-01T07:36:04;54392.41;;;-146.31;50.72
2036;BME280;23642;42.658;23.350;2023-04-01T07:38:38;54357.31;;;-146.31;50.13
2036;BME280;23642;42.658;23.350;2023-04-01T07:41:13;54357.31;;;-146.31;49.51
2036;BME280;23642;42.658;23.350;2023-04-01T07:43:53;54338.72;;;-146.31;49.43
2036;BME280;23642;42.658;23.350;2023-04-01T07:46:43;54334.59;;;-146.31;49.52
2036;BME280;23642;42.658;23.350;2023-04-01T07:49:17;54413.06;;;-146.31;51.76
2036;BME280;23642;42.658;23.350;2023-04-01T07:51:53;54388.28;;;-146.31;51.59
2036;BME280;23642;42.658;23.350;2023-04-01T07:54:29;54375.88;;;-146.31;51.76
2036;BME280;23642;42.658;23.350;2023-04-01T07:57:03;54369.69;;;-146.31;51.79
2036;BME280;23642;42.658;23.350;2023-04-01T07:59:39;54371.75;;;-146.31;52.05
2036;BME280;23642;42.658;23.350;2023-04-01T08:02:21;54406.84;;;-146.31;52.33
2036;BME280;23642;42.658;23.350;2023-04-01T08:05:02;54377.94;;;-146.31;52.37
2036;BME280;23642;42.658;23.350;2023-04-01T08:07:35;54361.44;;;-146.31;51.86
2036;BME280;23642;42.658;23.350;2023-04-01T08:10:09;54357.31;;;-146.31;51.16
2036;BME280;23642;42.658;23.350;2023-04-01T08:12:45;54388.28;;;-146.31;51.39
2036;BME280;23642;42.658;23.350;2023-04-01T08:15:20;54359.38;;;-146.31;51.29
2036;BME280;23642;42.658;23.350;2023-04-01T08:17:58;54344.91;;;-146.31;50.08
2036;BME280;23642;42.658;23.350;2023-04-01T08:20:33;54353.19;;;-146.31;50.47
2036;BME280;23642;42.658;23.350;2023-04-01T08:23:06;54336.66;;;-146.31;50.16
2036;BME280;23642;42.658;23.350;2023-04-01T08:25:37;54252.00;;;-146.31;48.63
2036;BME280;23642;42.658;23.350;2023-04-01T08:28:11;54179.75;;;-146.31;47.59
2036;BME280;23642;42.658;23.350;2023-04-01T08:30:42;54192.13;;;-146.31;46.64
2036;BME280;23642;42.658;23.350;2023-04-01T08:33:15;54144.63;;;-146.31;45.31
2036;BME280;23642;42.658;23.350;2023-04-01T08:35:47;54173.53;;;-146.31;45.36
2036;BME280;23642;42.658;23.350;2023-04-01T08:38:20;54245.81;;;-146.31;45.59
2036;BME280;23642;42.658;23.350;2023-04-01T08:40:57;54208.63;;;-146.31;45.49
2036;BME280;23642;42.658;23.350;2023-04-01T08:44:04;54274.72;;;-146.31;46.29
2036;BME280;23642;42.658;23.350;2023-04-01T08:47:10;54276.78;;;-146.31;46.04
2036;BME280;23642;42.658;23.350;2023-04-01T08:50:01;54301.56;;;-146.31;46.40
2036;BME280;23642;42.658;23.350;2023-04-01T08:52:35;54336.66;;;-146.31;47.07
2036;BME280;23642;42.658;23.350;2023-04-01T08:55:25;54318.06;;;-146.31;46.74
2036;BME280;23642;42.658;23.350;2023-04-01T08:58:03;54299.50;;;-146.31;46.95
2036;BME280;23642;42.658;23.350;2023-04-01T09:00:38;54307.75;;;-146.31;45.59
2036;BME280;23642;42.658;23.350;2023-04-01T09:06:40;54179.75;;;-146.31;44.59
2036;BME280;23642;42.658;23.350;2023-04-01T09:09:36;54214.84;;;-146.31;44.20
2036;BME280;23642;42.658;23.350;2023-04-01T09:12:27;54183.88;;;-146.31;43.04
2036;BME280;23642;42.658;23.350;2023-04-01T09:15:19;54285.03;;;-146.31;42.34
2036;BME280;23642;42.658;23.350;2023-04-01T09:18:08;54390.34;;;-146.31;41.82
2036;BME280;23642;42.658;23.350;2023-04-01T09:20:58;54456.41;;;-146.31;40.24
2036;BME280;23642;42.658;23.350;2023-04-01T09:23:58;54470.88;;;-146.31;40.35
2036;BME280;23642;42.658;23.350;2023-04-01T09:26:48;54485.31;;;-146.31;40.01
2036;BME280;23642;42.658;23.350;2023-04-01T09:29:41;54623.66;;;-146.31;39.19
2036;BME280;23642;42.658;23.350;2023-04-01T09:32:27;54679.44;;;-146.31;38.81
2036;BME280;23642;42.658;23.350;2023-04-01T09:35:15;54689.75;;;-146.31;38.51
2036;BME280;23642;42.658;23.350;2023-04-01T09:37:53;54667.03;;;-146.31;38.87
2036;BME280;23642;42.658;23.350;2023-04-01T09:40:26;54644.31;;;-146.31;39.24
2036;BME280;23642;42.658;23.350;2023-04-01T09:43:21;54687.69;;;-146.31;39.35
2036;BME280;23642;42.658;23.350;2023-04-01T09:46:03;54613.34;;;-146.31;39.62
2036;BME280;23642;42.658;23.350;2023-04-01T09:48:58;54634.00;;;-146.31;38.94
2036;BME280;23642;42.658;23.350;2023-04-01T09:51:40;54580.31;;;-146.31;38.24
2036;BME280;23642;42.658;23.350;2023-04-01T09:54:28;54609.22;;;-146.31;37.87
2036;BME280;23642;42.658;23.350;2023-04-01T10:00:38;54524.56;;;-146.31;37.23
2036;BME280;23642;42.658;23.350;2023-04-01T10:03:34;54454.34;;;-146.31;37.13
2036;BME280;23642;42.658;23.350;2023-04-01T10:06:42;54501.84;;;-146.31;37.24
2036;BME280;23642;42.658;23.350;2023-04-01T10:09:46;54421.31;;;-146.31;36.51
2036;BME280;23642;42.658;23.350;2023-04-01T10:15:49;54510.09;;;-146.31;37.84
2036;BME280;23642;42.658;23.350;2023-04-01T10:21:25;54600.97;;;-146.31;39.07
2036;BME280;23642;42.658;23.350;2023-04-01T10:30:46;54536.94;;;-146.31;39.35
2036;BME280;23642;42.658;23.350;2023-04-01T10:36:46;54700.06;;;-146.31;40.43
2036;BME280;23642;42.658;23.350;2023-04-01T10:39:37;54745.50;;;-146.31;41.10
2036;BME280;23642;42.658;23.350;2023-04-01T10:46:11;54681.50;;;-146.31;42.01
2036;BME280;23642;42.658;23.350;2023-04-01T10:55:23;54720.72;;;-146.31;41.22
2036;BME280;23642;42.658;23.350;2023-04-01T10:58:18;54691.81;;;-146.31;41.95
2036;BME280;23642;42.658;23.350;2023-04-01T11:01:15;54704.22;;;-146.31;41.64
2036;BME280;23642;42.658;23.350;2023-04-01T11:07:17;54702.13;;;-146.31;41.72
2036;BME280;23642;42.658;23.350;2023-04-01T11:10:25;54700.06;;;-146.31;41.01
2036;BME280;23642;42.658;23.350;2023-04-01T11:22:35;54708.34;;;-146.31;40.26
2036;BME280;23642;42.658;23.350;2023-04-01T11:25:20;54751.69;;;-146.31;38.92
2036;BME280;23642;42.658;23.350;2023-04-01T11:28:15;54784.75;;;-146.31;36.90
2036;BME280;23642;42.658;23.350;2023-04-01T11:30:58;54811.59;;;-146.31;37.03
2036;BME280;23642;42.658;23.350;2023-04-01T11:33:33;54815.72;;;-146.31;37.42
2036;BME280;23642;42.658;23.350;2023-04-01T11:36:20;54799.19;;;-146.31;39.75
2036;BME280;23642;42.658;23.350;2023-04-01T11:39:17;54817.78;;;-146.31;41.02
2036;BME280;23642;42.658;23.350;2023-04-01T11:41:56;54815.72;;;-146.31;41.62
2036;BME280;23642;42.658;23.350;2023-04-01T11:44:29;54861.16;;;-146.31;43.63
2036;BME280;23642;42.658;23.350;2023-04-01T11:47:10;54885.94;;;-146.31;47.35
2036;BME280;23642;42.658;23.350;2023-04-01T11:50:09;54900.38;;;-146.31;50.20
2036;BME280;23642;42.658;23.350;2023-04-01T11:52:55;54795.06;;;-146.31;56.06
2036;BME280;23642;42.658;23.350;2023-04-01T11:55:35;54163.22;;;-146.31;66.40
2036;BME280;23642;42.658;23.350;2023-04-01T11:58:23;53820.50;;;-146.31;79.10
2036;BME280;23642;42.658;23.350;2023-04-01T12:01:07;53585.16;;;-146.31;85.71
2036;BME280;23642;42.658;23.350;2023-04-01T12:03:51;53296.16;;;-146.31;89.87
2036;BME280;23642;42.658;23.350;2023-04-01T12:06:31;53042.28;;;-146.31;92.16
2036;BME280;23642;42.658;23.350;2023-04-01T12:09:10;52782.25;;;-146.31;93.76
2036;BME280;23642;42.658;23.350;2023-04-01T12:11:48;52272.50;;;-146.31;96.99
2036;BME280;23642;42.658;23.350;2023-04-01T12:14:32;51905.22;;;-146.31;97.09
2036;BME280;23642;42.658;23.350;2023-04-01T12:17:10;51789.69;;;-146.31;96.97
2036;BME280;23642;42.658;23.350;2023-04-01T12:19:48;51653.53;;;-146.31;96.59
2036;BME280;23642;42.658;23.350;2023-04-01T12:22:41;51744.31;;;-146.31;95.47
2036;BME280;23642;42.658;23.350;2023-04-01T12:25:23;51913.47;;;-146.31;92.76
2036;BME280;23642;42.658;23.350;2023-04-01T12:28:05;52074.44;;;-146.31;91.86
2036;BME280;23642;42.658;23.350;2023-04-01T12:30:55;51925.88;;;-146.31;93.02
2036;BME280;23642;42.658;23.350;2023-04-01T12:33:39;51960.94;;;-146.31;93.06
2036;BME280;23642;42.658;23.350;2023-04-01T12:36:19;51963.00;;;-146.31;92.56
2036;BME280;23642;42.658;23.350;2023-04-01T12:39:27;51907.28;;;-146.31;93.41
2036;BME280;23642;42.658;23.350;2023-04-01T12:42:05;51748.44;;;-146.31;95.10
2036;BME280;23642;42.658;23.350;2023-04-01T12:44:54;51414.22;;;-146.31;97.54
2036;BME280;23642;42.658;23.350;2023-04-01T12:47:52;51020.19;;;-146.31;99.18
2036;BME280;23642;42.658;23.350;2023-04-01T12:53:39;50597.38;;;-146.31;100.00
2036;BME280;23642;42.658;23.350;2023-04-01T12:56:14;50327.19;;;-146.31;100.00
2036;BME280;23642;42.658;23.350;2023-04-01T13:02:01;50201.38;;;-146.31;99.68
2036;BME280;23642;42.658;23.350;2023-04-01T13:04:45;50079.72;;;-146.31;100.00
2036;BME280;23642;42.658;23.350;2023-04-01T13:07:51;49956.00;;;-146.31;100.00
2036;BME280;23642;42.658;23.350;2023-04-01T13:10:30;49968.38;;;-146.31;99.74
2036;BME280;23642;42.658;23.350;2023-04-01T13:13:10;50034.34;;;-146.31;99.40
2036;BME280;23642;42.658;23.350;2023-04-01T13:15:46;49958.06;;;-146.31;99.79
2036;BME280;23642;42.658;23.350;2023-04-01T13:18:29;49710.59;;;-146.31;100.00
2036;BME280;23642;42.658;23.350;2023-04-01T13:21:04;49931.25;;;-146.31;97.98
2036;BME280;23642;42.658;23.350;2023-04-01T13:23:49;50323.06;;;-146.31;94.84
2036;BME280;23642;42.658;23.350;2023-04-01T13:26:24;50667.50;;;-146.31;89.82
2036;BME280;23642;42.658;23.350;2023-04-01T13:28:59;51296.63;;;-146.31;84.48
2036;BME280;23642;42.658;23.350;2023-04-01T13:31:38;51632.88;;;-146.31;81.60
2036;BME280;23642;42.658;23.350;2023-04-01T13:34:23;51783.50;;;-146.31;79.67
2036;BME280;23642;42.658;23.350;2023-04-01T13:37:03;51835.09;;;-146.31;79.05
2036;BME280;23642;42.658;23.350;2023-04-01T13:39:59;52029.03;;;-146.31;79.50
2036;BME280;23642;42.658;23.350;2023-04-01T13:42:32;52018.72;;;-146.31;80.61
2036;BME280;23642;42.658;23.350;2023-04-01T13:45:10;52078.56;;;-146.31;80.83
2036;BME280;23642;42.658;23.350;2023-04-01T13:51:18;52148.72;;;-146.31;77.82
2036;BME280;23642;42.658;23.350;2023-04-01T13:57:11;52313.78;;;-146.31;74.07
2036;BME280;23642;42.658;23.350;2023-04-01T14:03:11;52396.31;;;-146.31;72.20
2036;BME280;23642;42.658;23.350;2023-04-01T14:05:52;52342.69;;;-146.31;74.75
2036;BME280;23642;42.658;23.350;2023-04-01T14:08:38;52346.81;;;-146.31;75.44
2036;BME280;23642;42.658;23.350;2023-04-01T14:11:15;52478.88;;;-146.31;73.17
2036;BME280;23642;42.658;23.350;2023-04-01T14:13:56;52474.75;;;-146.31;73.22
2036;BME280;23642;42.658;23.350;2023-04-01T14:19:56;52577.94;;;-146.31;76.49
2036;BME280;23642;42.658;23.350;2023-04-01T14:22:34;52410.78;;;-146.31;81.68
2036;BME280;23642;42.658;23.350;2023-04-01T14:25:29;52379.81;;;-146.31;84.02
2036;BME280;23642;42.658;23.350;2023-04-01T14:28:03;52309.66;;;-146.31;85.44
2036;BME280;23642;42.658;23.350;2023-04-01T14:30:52;52346.81;;;-146.31;83.78
2036;BME280;23642;42.658;23.350;2023-04-01T14:33:39;52278.72;;;-146.31;83.77
2036;BME280;23642;42.658;23.350;2023-04-01T14:36:29;52227.13;;;-146.31;85.39
2036;BME280;23642;42.658;23.350;2023-04-01T14:39:15;52286.97;;;-146.31;83.97